sensor_id;sensor_type;location;lat;lon;timestamp;temperature;humidity
22337;DHT22;14992;50.844;4.418;2023-02-13T00:00:48;8.50;99.90
22337;DHT22;14992;50.844;4.418;2023-02-13T00:03:44;8.40;99.90
22337;DHT22;14992;50.844;4.418;2023-02-13T00:06:26;8.40;99.90
22337;DHT22;14992;50.844;4.418;2023-02-13T00:09:15;8.30;99.90
22337;DHT22;14992;50.844;4.418;2023-02-13T00:11:57;8.30;99.90
22337;DHT22;14992;50.844;4.418;2023-02-13T00:14:47;8.30;99.90
22337;DHT22;14992;50.844;4.418;2023-02-13T00:17:29;8.20;99.90
22337;DHT22;14992;50.844;4.418;2023-02-13T00:20:18;8.20;99.90
22337;DHT22;14992;50.844;4.418;2023-02-13T00:23:00;8.10;99.90
22337;DHT22;14992;50.844;4.418;2023-02-13T00:25:49;8.10;99.90
22337;DHT22;14992;50.844;4.418;2023-02-13T00:28:30;8.10;99.90
22337;DHT22;14992;50.844;4.418;2023-02-13T00:31:27;8.10;99.90
22337;DHT22;14992;50.844;4.418;2023-02-13T00:34:02;8.00;99.90
22337;DHT22;14992;50.844;4.418;2023-02-13T00:36:58;8.00;99.90
22337;DHT22;14992;50.844;4.418;2023-02-13T00:39:33;8.10;99.90
22337;DHT22;14992;50.844;4.418;2023-02-13T00:42:29;7.90;99.90
22337;DHT22;14992;50.844;4.418;2023-02-13T00:45:06;7.90;99.90
22337;DHT22;14992;50.844;4.418;2023-02-13T00:48:02;7.90;99.90
22337;DHT22;14992;50.844;4.418;2023-02-13T00:50:37;7.90;99.90
22337;DHT22;14992;50.844;4.418;2023-02-13T00:53:35;7.90;99.90
22337;DHT22;14992;50.844;4.418;2023-02-13T00:56:10;7.90;99.90
22337;DHT22;14992;50.844;4.418;2023-02-13T00:59:07;7.90;99.90
22337;DHT22;14992;50.844;4.418;2023-02-13T01:01:55;7.80;99.90
22337;DHT22;14992;50.844;4.418;2023-02-13T01:04:38;7.80;99.90
22337;DHT22;14992;50.844;4.418;2023-02-13T01:07:27;7.80;99.90
22337;DHT22;14992;50.844;4.418;2023-02-13T01:10:03;7.80;99.90
22337;DHT22;14992;50.844;4.418;2023-02-13T01:12:58;7.80;99.90
22337;DHT22;14992;50.844;4.418;2023-02-13T01:15:34;7.80;99.90
22337;DHT22;14992;50.844;4.418;2023-02-13T01:18:32;7.80;99.90
22337;DHT22;14992;50.844;4.418;2023-02-13T01:21:15;7.70;99.90
22337;DHT22;14992;50.844;4.418;2023-02-13T01:24:11;7.70;99.90
22337;DHT22;14992;50.844;4.418;2023-02-13T01:26:53;7.70;99.90
22337;DHT22;14992;50.844;4.418;2023-02-13T01:29:42;7.70;99.90
22337;DHT22;14992;50.844;4.418;2023-02-13T01:32:25;7.60;99.90
22337;DHT22;14992;50.844;4.418;2023-02-13T01:35:13;7.60;99.90
22337;DHT22;14992;50.844;4.418;2023-02-13T01:37:57;7.60;99.90
22337;DHT22;14992;50.844;4.418;2023-02-13T01:40:45;7.60;99.90
22337;DHT22;14992;50.844;4.418;2023-02-13T01:43:49;7.60;99.90
22337;DHT22;14992;50.844;4.418;2023-02-13T01:46:40;7.50;99.90
22337;DHT22;14992;50.844;4.418;2023-02-13T01:49:25;7.40;99.90
22337;DHT22;14992;50.844;4.418;2023-02-13T01:52:20;7.50;99.90
22337;DHT22;14992;50.844;4.418;2023-02-13T01:54:57;7.60;99.90
22337;DHT22;14992;50.844;4.418;2023-02-13T01:57:55;7.50;99.90
22337;DHT22;14992;50.844;4.418;2023-02-13T02:00:31;7.50;99.90
22337;DHT22;14992;50.844;4.418;2023-02-13T02:03:30;7.40;99.90
22337;DHT22;14992;50.844;4.418;2023-02-13T02:06:13;7.40;99.90
22337;DHT22;14992;50.844;4.418;2023-02-13T02:09:11;7.20;99.90
22337;DHT22;14992;50.844;4.418;2023-02-13T02:11:52;7.10;99.90
22337;DHT22;14992;50.844;4.418;2023-02-13T02:14:50;7.20;99.90
22337;DHT22;14992;50.844;4.418;2023-02-13T02:17:33;7.30;99.90
22337;DHT22;14992;50.844;4.418;2023-02-13T02:20:29;7.30;99.90
22337;DHT22;14992;50.844;4.418;2023-02-13T02:23:34;7.00;99.90
22337;DHT22;14992;50.844;4.418;2023-02-13T02:26:58;7.10;99.90
22337;DHT22;14992;50.844;4.418;2023-02-13T02:33:30;7.20;99.90
22337;DHT22;14992;50.844;4.418;2023-02-13T02:36:26;7.10;99.90
22337;DHT22;14992;50.844;4.418;2023-02-13T02:39:24;7.10;99.90
22337;DHT22;14992;50.844;4.418;2023-02-13T02:42:09;7.00;99.90
22337;DHT22;14992;50.844;4.418;2023-02-13T02:45:10;7.00;99.90
22337;DHT22;14992;50.844;4.418;2023-02-13T02:47:54;7.10;99.90
22337;DHT22;14992;50.844;4.418;2023-02-13T02:51:17;7.10;99.90
22337;DHT22;14992;50.844;4.418;2023-02-13T02:54:02;7.00;99.90
22337;DHT22;14992;50.844;4.418;2023-02-13T02:57:15;7.00;99.90
22337;DHT22;14992;50.844;4.418;2023-02-13T02:59:57;6.90;99.90
22337;DHT22;14992;50.844;4.418;2023-02-13T03:03:14;6.90;99.90
22337;DHT22;14992;50.844;4.418;2023-02-13T03:06:22;6.80;99.90
22337;DHT22;14992;50.844;4.418;2023-02-13T03:09:15;6.70;99.90
22337;DHT22;14992;50.844;4.418;2023-02-13T03:12:22;6.70;99.90
22337;DHT22;14992;50.844;4.418;2023-02-13T03:15:28;6.60;99.90
22337;DHT22;14992;50.844;4.418;2023-02-13T03:18:10;6.60;99.90
22337;DHT22;14992;50.844;4.418;2023-02-13T03:21:25;6.60;99.90
22337;DHT22;14992;50.844;4.418;2023-02-13T03:24:39;6.60;99.90
22337;DHT22;14992;50.844;4.418;2023-02-13T03:27:42;6.60;99.90
22337;DHT22;14992;50.844;4.418;2023-02-13T03:30:53;6.50;99.90
22337;DHT22;14992;50.844;4.418;2023-02-13T03:33:54;6.50;99.90
22337;DHT22;14992;50.844;4.418;2023-02-13T03:36:43;6.50;99.90
22337;DHT22;14992;50.844;4.418;2023-02-13T03:39:59;6.50;99.90
22337;DHT22;14992;50.844;4.418;2023-02-13T03:42:39;6.50;99.90
22337;DHT22;14992;50.844;4.418;2023-02-13T03:45:37;6.50;99.90
22337;DHT22;14992;50.844;4.418;2023-02-13T03:48:49;6.50;99.90
22337;DHT22;14992;50.844;4.418;2023-02-13T03:51:59;6.30;99.90
22337;DHT22;14992;50.844;4.418;2023-02-13T03:54:47;6.30;99.90
22337;DHT22;14992;50.844;4.418;2023-02-13T03:57:58;6.30;99.90
22337;DHT22;14992;50.844;4.418;2023-02-13T04:01:07;6.30;99.90
22337;DHT22;14992;50.844;4.418;2023-02-13T04:03:55;6.30;99.90
22337;DHT22;14992;50.844;4.418;2023-02-13T04:06:48;6.30;99.90
22337;DHT22;14992;50.844;4.418;2023-02-13T04:09:27;6.30;99.90
22337;DHT22;14992;50.844;4.418;2023-02-13T04:12:26;6.20;99.90
22337;DHT22;14992;50.844;4.418;2023-02-13T04:15:15;6.20;99.90
22337;DHT22;14992;50.844;4.418;2023-02-13T04:18:08;6.30;99.90
22337;DHT22;14992;50.844;4.418;2023-02-13T04:20:51;6.30;99.90
22337;DHT22;14992;50.844;4.418;2023-02-13T04:23:40;6.30;99.90
22337;DHT22;14992;50.844;4.418;2023-02-13T04:26:32;6.20;99.90
22337;DHT22;14992;50.844;4.418;2023-02-13T04:29:22;6.20;99.90
22337;DHT22;14992;50.844;4.418;2023-02-13T04:32:04;6.00;99.90
22337;DHT22;14992;50.844;4.418;2023-02-13T04:34:53;6.00;99.90
22337;DHT22;14992;50.844;4.418;2023-02-13T04:37:34;6.00;99.90
22337;DHT22;14992;50.844;4.418;2023-02-13T04:40:30;6.00;99.90
22337;DHT22;14992;50.844;4.418;2023-02-13T04:43:07;6.10;99.90
22337;DHT22;14992;50.844;4.418;2023-02-13T04:46:02;6.10;99.90
22337;DHT22;14992;50.844;4.418;2023-02-13T04:48:37;6.00;99.90
22337;DHT22;14992;50.844;4.418;2023-02-13T04:51:33;6.00;99.90
22337;DHT22;14992;50.844;4.418;2023-02-13T04:54:14;6.00;99.90
22337;DHT22;14992;50.844;4.418;2023-02-13T04:57:03;6.00;99.90
22337;DHT22;14992;50.844;4.418;2023-02-13T04:59:46;6.00;99.90
22337;DHT22;14992;50.844;4.418;2023-02-13T05:02:34;6.00;99.90
22337;DHT22;14992;50.844;4.418;2023-02-13T05:05:16;6.00;99.90
22337;DHT22;14992;50.844;4.418;2023-02-13T05:08:11;6.10;99.90
22337;DHT22;14992;50.844;4.418;2023-02-13T05:10:47;6.10;99.90
22337;DHT22;14992;50.844;4.418;2023-02-13T05:13:43;6.00;99.90
22337;DHT22;14992;50.844;4.418;2023-02-13T05:16:20;5.90;99.90
22337;DHT22;14992;50.844;4.418;2023-02-13T05:19:15;5.90;99.90
22337;DHT22;14992;50.844;4.418;2023-02-13T05:21:50;5.90;99.90
22337;DHT22;14992;50.844;4.418;2023-02-13T05:25:03;5.90;99.90
22337;DHT22;14992;50.844;4.418;2023-02-13T05:27:45;5.80;99.90
22337;DHT22;14992;50.844;4.418;2023-02-13T05:30:34;5.80;99.90
22337;DHT22;14992;50.844;4.418;2023-02-13T05:33:17;5.80;99.90
22337;DHT22;14992;50.844;4.418;2023-02-13T05:36:05;5.80;99.90
22337;DHT22;14992;50.844;4.418;2023-02-13T05:38:47;5.80;99.90
22337;DHT22;14992;50.844;4.418;2023-02-13T05:41:44;5.80;99.90
22337;DHT22;14992;50.844;4.418;2023-02-13T05:44:19;5.70;99.90
22337;DHT22;14992;50.844;4.418;2023-02-13T05:47:15;5.70;99.90
22337;DHT22;14992;50.844;4.418;2023-02-13T05:49:52;5.80;99.90
22337;DHT22;14992;50.844;4.418;2023-02-13T05:52:47;5.70;99.90
22337;DHT22;14992;50.844;4.418;2023-02-13T05:55:22;5.70;99.90
22337;DHT22;14992;50.844;4.418;2023-02-13T05:58:18;5.70;99.90
22337;DHT22;14992;50.844;4.418;2023-02-13T06:01:07;5.70;99.90
22337;DHT22;14992;50.844;4.418;2023-02-13T06:03:49;5.60;99.90
22337;DHT22;14992;50.844;4.418;2023-02-13T06:06:40;5.50;99.90
22337;DHT22;14992;50.844;4.418;2023-02-13T06:09:16;5.50;99.90
22337;DHT22;14992;50.844;4.418;2023-02-13T06:12:12;5.50;99.90
22337;DHT22;14992;50.844;4.418;2023-02-13T06:14:47;5.40;99.90
22337;DHT22;14992;50.844;4.418;2023-02-13T06:17:43;5.50;99.90
22337;DHT22;14992;50.844;4.418;2023-02-13T06:20:18;5.50;99.90
22337;DHT22;14992;50.844;4.418;2023-02-13T06:23:15;5.50;99.90
22337;DHT22;14992;50.844;4.418;2023-02-13T06:26:01;5.40;99.90
22337;DHT22;14992;50.844;4.418;2023-02-13T06:28:50;5.40;99.90
22337;DHT22;14992;50.844;4.418;2023-02-13T06:31:31;5.40;99.90
22337;DHT22;14992;50.844;4.418;2023-02-13T06:34:20;5.50;99.90
22337;DHT22;14992;50.844;4.418;2023-02-13T06:37:02;5.50;99.90
22337;DHT22;14992;50.844;4.418;2023-02-13T06:39:52;5.50;99.90
22337;DHT22;14992;50.844;4.418;2023-02-13T06:42:34;5.40;99.90
22337;DHT22;14992;50.844;4.418;2023-02-13T06:45:23;5.40;99.90
22337;DHT22;14992;50.844;4.418;2023-02-13T06:48:06;5.40;99.90
22337;DHT22;14992;50.844;4.418;2023-02-13T06:51:01;5.30;99.90
22337;DHT22;14992;50.844;4.418;2023-02-13T06:53:36;5.40;99.90
22337;DHT22;14992;50.844;4.418;2023-02-13T06:56:33;5.40;99.90
22337;DHT22;14992;50.844;4.418;2023-02-13T06:59:08;5.40;99.90
22337;DHT22;14992;50.844;4.418;2023-02-13T07:02:04;5.40;99.90
22337;DHT22;14992;50.844;4.418;2023-02-13T07:05:07;5.30;99.90
22337;DHT22;14992;50.844;4.418;2023-02-13T07:08:03;5.40;99.90
22337;DHT22;14992;50.844;4.418;2023-02-13T07:10:39;5.40;99.90
22337;DHT22;14992;50.844;4.418;2023-02-13T07:13:36;5.40;99.90
22337;DHT22;14992;50.844;4.418;2023-02-13T07:16:18;5.50;99.90
22337;DHT22;14992;50.844;4.418;2023-02-13T07:19:07;5.50;99.90
22337;DHT22;14992;50.844;4.418;2023-02-13T07:21:49;5.50;99.90
22337;DHT22;14992;50.844;4.418;2023-02-13T07:24:37;5.50;99.90
22337;DHT22;14992;50.844;4.418;2023-02-13T07:27:19;5.60;99.90
22337;DHT22;14992;50.844;4.418;2023-02-13T07:30:11;5.60;99.90
22337;DHT22;14992;50.844;4.418;2023-02-13T07:32:58;5.70;99.90
22337;DHT22;14992;50.844;4.418;2023-02-13T07:35:46;5.70;99.90
22337;DHT22;14992;50.844;4.418;2023-02-13T07:38:30;5.70;99.90
22337;DHT22;14992;50.844;4.418;2023-02-13T07:41:26;5.80;99.90
22337;DHT22;14992;50.844;4.418;2023-02-13T07:44:01;5.90;99.90
22337;DHT22;14992;50.844;4.418;2023-02-13T07:46:58;6.00;99.90
22337;DHT22;14992;50.844;4.418;2023-02-13T07:49:33;6.00;99.90
22337;DHT22;14992;50.844;4.418;2023-02-13T07:52:29;6.00;99.90
22337;DHT22;14992;50.844;4.418;2023-02-13T07:55:05;6.10;99.90
22337;DHT22;14992;50.844;4.418;2023-02-13T07:58:01;6.20;99.90
22337;DHT22;14992;50.844;4.418;2023-02-13T08:00:36;6.20;99.90
22337;DHT22;14992;50.844;4.418;2023-02-13T08:03:33;6.30;99.90
22337;DHT22;14992;50.844;4.418;2023-02-13T08:06:16;6.40;99.90
22337;DHT22;14992;50.844;4.418;2023-02-13T08:09:05;6.30;99.90
22337;DHT22;14992;50.844;4.418;2023-02-13T08:12:07;6.50;99.90
22337;DHT22;14992;50.844;4.418;2023-02-13T08:14:56;6.50;99.90
22337;DHT22;14992;50.844;4.418;2023-02-13T08:17:38;6.60;99.90
22337;DHT22;14992;50.844;4.418;2023-02-13T08:20:28;6.60;99.90
22337;DHT22;14992;50.844;4.418;2023-02-13T08:23:10;6.60;99.90
22337;DHT22;14992;50.844;4.418;2023-02-13T08:25:59;6.70;99.90
22337;DHT22;14992;50.844;4.418;2023-02-13T08:28:41;6.90;99.90
22337;DHT22;14992;50.844;4.418;2023-02-13T08:31:30;6.90;99.90
22337;DHT22;14992;50.844;4.418;2023-02-13T08:34:12;7.00;99.90
22337;DHT22;14992;50.844;4.418;2023-02-13T08:37:09;7.10;99.90
22337;DHT22;14992;50.844;4.418;2023-02-13T08:39:44;7.10;99.90
22337;DHT22;14992;50.844;4.418;2023-02-13T08:42:40;7.20;99.90
22337;DHT22;14992;50.844;4.418;2023-02-13T08:45:17;7.30;99.90
22337;DHT22;14992;50.844;4.418;2023-02-13T08:48:13;7.40;99.90
22337;DHT22;14992;50.844;4.418;2023-02-13T08:50:48;7.50;99.90
22337;DHT22;14992;50.844;4.418;2023-02-13T08:53:45;7.60;99.90
22337;DHT22;14992;50.844;4.418;2023-02-13T08:56:20;7.70;99.90
22337;DHT22;14992;50.844;4.418;2023-02-13T08:59:16;7.80;99.90
22337;DHT22;14992;50.844;4.418;2023-02-13T09:02:04;7.80;99.90
22337;DHT22;14992;50.844;4.418;2023-02-13T09:04:45;7.80;99.90
22337;DHT22;14992;50.844;4.418;2023-02-13T09:07:34;7.90;99.90
22337;DHT22;14992;50.844;4.418;2023-02-13T09:10:11;8.00;99.90
22337;DHT22;14992;50.844;4.418;2023-02-13T09:13:06;8.20;99.90
22337;DHT22;14992;50.844;4.418;2023-02-13T09:15:41;8.40;99.90
22337;DHT22;14992;50.844;4.418;2023-02-13T09:18:37;8.60;99.90
22337;DHT22;14992;50.844;4.418;2023-02-13T09:21:13;8.70;99.90
22337;DHT22;14992;50.844;4.418;2023-02-13T09:24:09;8.60;99.90
22337;DHT22;14992;50.844;4.418;2023-02-13T09:27:06;8.70;99.90
22337;DHT22;14992;50.844;4.418;2023-02-13T09:29:42;8.60;99.90
22337;DHT22;14992;50.844;4.418;2023-02-13T09:32:37;8.80;99.90
22337;DHT22;14992;50.844;4.418;2023-02-13T09:35:15;8.90;99.90
22337;DHT22;14992;50.844;4.418;2023-02-13T09:38:10;9.10;99.90
22337;DHT22;14992;50.844;4.418;2023-02-13T09:40:48;9.20;99.90
22337;DHT22;14992;50.844;4.418;2023-02-13T09:43:49;9.20;99.90
22337;DHT22;14992;50.844;4.418;2023-02-13T09:46:30;9.20;99.90
22337;DHT22;14992;50.844;4.418;2023-02-13T09:49:29;9.30;99.90
22337;DHT22;14992;50.844;4.418;2023-02-13T09:52:12;9.30;99.90
22337;DHT22;14992;50.844;4.418;2023-02-13T09:55:01;9.40;99.90
22337;DHT22;14992;50.844;4.418;2023-02-13T09:57:48;9.50;99.90
22337;DHT22;14992;50.844;4.418;2023-02-13T10:00:42;9.50;99.90
22337;DHT22;14992;50.844;4.418;2023-02-13T10:03:28;9.60;99.90
22337;DHT22;14992;50.844;4.418;2023-02-13T10:06:22;9.60;99.90
22337;DHT22;14992;50.844;4.418;2023-02-13T10:09:11;9.70;99.90
22337;DHT22;14992;50.844;4.418;2023-02-13T10:15:07;9.90;99.90
22337;DHT22;14992;50.844;4.418;2023-02-13T10:18:04;10.30;99.90
22337;DHT22;14992;50.844;4.418;2023-02-13T10:20:49;10.30;99.90
22337;DHT22;14992;50.844;4.418;2023-02-13T10:23:50;10.40;99.90
22337;DHT22;14992;50.844;4.418;2023-02-13T10:26:31;10.40;99.90
22337;DHT22;14992;50.844;4.418;2023-02-13T10:29:37;10.50;99.90
22337;DHT22;14992;50.844;4.418;2023-02-13T10:32:38;10.60;99.90
22337;DHT22;14992;50.844;4.418;2023-02-13T10:35:38;10.60;99.90
22337;DHT22;14992;50.844;4.418;2023-02-13T10:38:15;10.70;99.90
22337;DHT22;14992;50.844;4.418;2023-02-13T10:41:23;10.80;99.90
22337;DHT22;14992;50.844;4.418;2023-02-13T10:44:19;11.10;99.90
22337;DHT22;14992;50.844;4.418;2023-02-13T10:47:19;11.10;99.90
22337;DHT22;14992;50.844;4.418;2023-02-13T10:50:16;11.30;99.90
22337;DHT22;14992;50.844;4.418;2023-02-13T10:53:12;11.30;99.90
22337;DHT22;14992;50.844;4.418;2023-02-13T10:56:05;11.40;99.90
22337;DHT22;14992;50.844;4.418;2023-02-13T10:59:07;11.50;99.90
22337;DHT22;14992;50.844;4.418;2023-02-13T11:01:56;11.60;99.90
22337;DHT22;14992;50.844;4.418;2023-02-13T11:04:44;11.70;99.90
22337;DHT22;14992;50.844;4.418;2023-02-13T11:07:28;11.70;99.90
22337;DHT22;14992;50.844;4.418;2023-02-13T11:10:23;11.80;99.90
22337;DHT22;14992;50.844;4.418;2023-02-13T11:13:15;11.70;99.90
22337;DHT22;14992;50.844;4.418;2023-02-13T11:16:10;11.60;99.90
22337;DHT22;14992;50.844;4.418;2023-02-13T11:18:49;11.60;99.90
22337;DHT22;14992;50.844;4.418;2023-02-13T11:21:45;11.70;99.90
22337;DHT22;14992;50.844;4.418;2023-02-13T11:24:22;11.70;99.90
22337;DHT22;14992;50.844;4.418;2023-02-13T11:27:23;11.70;99.90
22337;DHT22;14992;50.844;4.418;2023-02-13T11:30:03;11.60;99.90
22337;DHT22;14992;50.844;4.418;2023-02-13T11:33:04;11.50;99.90
22337;DHT22;14992;50.844;4.418;2023-02-13T11:35:40;11.60;99.90
22337;DHT22;14992;50.844;4.418;2023-02-13T11:38:35;12.40;99.90
22337;DHT22;14992;50.844;4.418;2023-02-13T11:41:18;14.30;99.90
22337;DHT22;14992;50.844;4.418;2023-02-13T11:44:19;16.20;99.90
22337;DHT22;14992;50.844;4.418;2023-02-13T11:47:03;17.40;99.90
22337;DHT22;14992;50.844;4.418;2023-02-13T11:49:51;17.40;99.90
22337;DHT22;14992;50.844;4.418;2023-02-13T11:52:34;16.20;99.90
22337;DHT22;14992;50.844;4.418;2023-02-13T11:55:29;15.10;99.90
22337;DHT22;14992;50.844;4.418;2023-02-13T11:58:23;14.30;99.90
22337;DHT22;14992;50.844;4.418;2023-02-13T12:01:26;14.00;99.90
22337;DHT22;14992;50.844;4.418;2023-02-13T12:04:14;13.80;99.90
22337;DHT22;14992;50.844;4.418;2023-02-13T12:07:11;13.80;99.90
22337;DHT22;14992;50.844;4.418;2023-02-13T12:09:59;13.80;99.90
22337;DHT22;14992;50.844;4.418;2023-02-13T12:12:57;13.80;99.90
22337;DHT22;14992;50.844;4.418;2023-02-13T12:15:34;13.70;99.90
22337;DHT22;14992;50.844;4.418;2023-02-13T12:18:33;13.60;99.90
22337;DHT22;14992;50.844;4.418;2023-02-13T12:21:25;13.60;99.90
22337;DHT22;14992;50.844;4.418;2023-02-13T12:24:37;13.40;99.90
22337;DHT22;14992;50.844;4.418;2023-02-13T12:27:18;13.40;99.90
22337;DHT22;14992;50.844;4.418;2023-02-13T12:30:35;13.30;99.90
22337;DHT22;14992;50.844;4.418;2023-02-13T12:33:41;13.50;99.90
22337;DHT22;14992;50.844;4.418;2023-02-13T12:36:43;13.50;99.90
22337;DHT22;14992;50.844;4.418;2023-02-13T12:39:32;13.70;99.90
22337;DHT22;14992;50.844;4.418;2023-02-13T12:42:31;13.60;99.90
22337;DHT22;14992;50.844;4.418;2023-02-13T12:45:27;13.30;99.90
22337;DHT22;14992;50.844;4.418;2023-02-13T12:48:30;13.20;99.90
22337;DHT22;14992;50.844;4.418;2023-02-13T12:51:28;13.10;99.90
22337;DHT22;14992;50.844;4.418;2023-02-13T12:54:42;13.20;99.90
22337;DHT22;14992;50.844;4.418;2023-02-13T12:57:35;13.20;99.90
22337;DHT22;14992;50.844;4.418;2023-02-13T13:00:42;13.40;99.90
22337;DHT22;14992;50.844;4.418;2023-02-13T13:03:45;13.60;99.90
22337;DHT22;14992;50.844;4.418;2023-02-13T13:06:49;13.40;99.90
22337;DHT22;14992;50.844;4.418;2023-02-13T13:10:12;13.20;99.90
22337;DHT22;14992;50.844;4.418;2023-02-13T13:13:04;13.30;99.90
22337;DHT22;14992;50.844;4.418;2023-02-13T13:16:08;13.40;99.90
22337;DHT22;14992;50.844;4.418;2023-02-13T13:19:02;13.40;99.90
22337;DHT22;14992;50.844;4.418;2023-02-13T13:21:59;13.40;99.90
22337;DHT22;14992;50.844;4.418;2023-02-13T13:24:51;13.40;99.90
22337;DHT22;14992;50.844;4.418;2023-02-13T13:27:51;13.40;99.90
22337;DHT22;14992;50.844;4.418;2023-02-13T13:30:29;13.40;99.90
22337;DHT22;14992;50.844;4.418;2023-02-13T13:33:26;13.50;99.90
22337;DHT22;14992;50.844;4.418;2023-02-13T13:36:06;13.50;99.90
22337;DHT22;14992;50.844;4.418;2023-02-13T13:39:08;13.60;99.90
22337;DHT22;14992;50.844;4.418;2023-02-13T13:42:03;13.60;99.90
22337;DHT22;14992;50.844;4.418;2023-02-13T13:45:17;13.50;99.90
22337;DHT22;14992;50.844;4.418;2023-02-13T13:48:25;13.40;99.90
22337;DHT22;14992;50.844;4.418;2023-02-13T13:51:18;13.50;99.90
22337;DHT22;14992;50.844;4.418;2023-02-13T13:54:23;13.40;99.90
22337;DHT22;14992;50.844;4.418;2023-02-13T13:57:12;13.40;99.90
22337;DHT22;14992;50.844;4.418;2023-02-13T14:00:23;13.50;99.90
22337;DHT22;14992;50.844;4.418;2023-02-13T14:03:33;13.60;99.90
22337;DHT22;14992;50.844;4.418;2023-02-13T14:06:18;13.60;99.90
22337;DHT22;14992;50.844;4.418;2023-02-13T14:09:38;13.60;99.90
22337;DHT22;14992;50.844;4.418;2023-02-13T14:12:35;13.60;99.90
22337;DHT22;14992;50.844;4.418;2023-02-13T14:15:51;13.70;99.90
22337;DHT22;14992;50.844;4.418;2023-02-13T14:18:35;13.80;99.90
22337;DHT22;14992;50.844;4.418;2023-02-13T14:21:27;13.80;99.90
22337;DHT22;14992;50.844;4.418;2023-02-13T14:24:10;13.80;99.90
22337;DHT22;14992;50.844;4.418;2023-02-13T14:27:00;13.90;99.90
22337;DHT22;14992;50.844;4.418;2023-02-13T14:29:46;14.00;99.90
22337;DHT22;14992;50.844;4.418;2023-02-13T14:32:36;14.00;99.90
22337;DHT22;14992;50.844;4.418;2023-02-13T14:35:24;13.80;99.90
22337;DHT22;14992;50.844;4.418;2023-02-13T14:38:22;13.80;99.90
22337;DHT22;14992;50.844;4.418;2023-02-13T14:41:40;13.80;99.90
22337;DHT22;14992;50.844;4.418;2023-02-13T14:44:46;13.70;99.90
22337;DHT22;14992;50.844;4.418;2023-02-13T14:47:29;13.60;99.90
22337;DHT22;14992;50.844;4.418;2023-02-13T14:50:39;13.70;99.90
22337;DHT22;14992;50.844;4.418;2023-02-13T14:53:21;13.70;99.90
22337;DHT22;14992;50.844;4.418;2023-02-13T14:56:19;13.80;99.90
22337;DHT22;14992;50.844;4.418;2023-02-13T14:59:08;13.70;99.90
22337;DHT22;14992;50.844;4.418;2023-02-13T15:02:17;13.70;99.90
22337;DHT22;14992;50.844;4.418;2023-02-13T15:05:05;13.70;99.90
22337;DHT22;14992;50.844;4.418;2023-02-13T15:08:03;13.70;99.90
22337;DHT22;14992;50.844;4.418;2023-02-13T15:10:48;13.80;99.90
22337;DHT22;14992;50.844;4.418;2023-02-13T15:13:37;13.80;99.90
22337;DHT22;14992;50.844;4.418;2023-02-13T15:16:21;13.80;99.90
22337;DHT22;14992;50.844;4.418;2023-02-13T15:19:14;13.70;99.90
22337;DHT22;14992;50.844;4.418;2023-02-13T15:21:58;13.70;99.90
22337;DHT22;14992;50.844;4.418;2023-02-13T15:24:48;13.60;99.90
22337;DHT22;14992;50.844;4.418;2023-02-13T15:27:35;13.60;99.90
22337;DHT22;14992;50.844;4.418;2023-02-13T15:30:33;13.60;99.90
22337;DHT22;14992;50.844;4.418;2023-02-13T15:33:16;13.60;99.90
22337;DHT22;14992;50.844;4.418;2023-02-13T15:36:18;13.40;99.90
22337;DHT22;14992;50.844;4.418;2023-02-13T15:38:57;13.50;99.90
22337;DHT22;14992;50.844;4.418;2023-02-13T15:41:56;13.40;99.90
22337;DHT22;14992;50.844;4.418;2023-02-13T15:44:34;13.40;99.90
22337;DHT22;14992;50.844;4.418;2023-02-13T15:47:30;13.40;99.90
22337;DHT22;14992;50.844;4.418;2023-02-13T15:50:15;13.40;99.90
22337;DHT22;14992;50.844;4.418;2023-02-13T15:53:13;13.40;99.90
22337;DHT22;14992;50.844;4.418;2023-02-13T15:56:13;13.40;99.90
22337;DHT22;14992;50.844;4.418;2023-02-13T15:58:49;13.30;99.90
22337;DHT22;14992;50.844;4.418;2023-02-13T16:01:46;13.40;99.90
22337;DHT22;14992;50.844;4.418;2023-02-13T16:04:29;13.40;99.90
22337;DHT22;14992;50.844;4.418;2023-02-13T16:07:18;13.40;99.90
22337;DHT22;14992;50.844;4.418;2023-02-13T16:10:16;13.50;99.90
22337;DHT22;14992;50.844;4.418;2023-02-13T16:13:17;13.40;99.90
22337;DHT22;14992;50.844;4.418;2023-02-13T16:15:54;13.40;99.90
22337;DHT22;14992;50.844;4.418;2023-02-13T16:18:49;13.30;99.90
22337;DHT22;14992;50.844;4.418;2023-02-13T16:21:27;13.30;99.90
22337;DHT22;14992;50.844;4.418;2023-02-13T16:24:23;13.30;99.90
22337;DHT22;14992;50.844;4.418;2023-02-13T16:27:14;13.20;99.90
22337;DHT22;14992;50.844;4.418;2023-02-13T16:30:05;13.10;99.90
22337;DHT22;14992;50.844;4.418;2023-02-13T16:32:48;13.00;99.90
22337;DHT22;14992;50.844;4.418;2023-02-13T16:35:38;12.90;99.90
22337;DHT22;14992;50.844;4.418;2023-02-13T16:38:28;12.80;99.90
22337;DHT22;14992;50.844;4.418;2023-02-13T16:41:32;12.70;99.90
22337;DHT22;14992;50.844;4.418;2023-02-13T16:44:24;12.70;99.90
22337;DHT22;14992;50.844;4.418;2023-02-13T16:47:22;12.50;99.90
22337;DHT22;14992;50.844;4.418;2023-02-13T16:49:58;12.40;99.90
22337;DHT22;14992;50.844;4.418;2023-02-13T16:52:59;12.30;99.90
22337;DHT22;14992;50.844;4.418;2023-02-13T16:55:35;12.20;99.90
22337;DHT22;14992;50.844;4.418;2023-02-13T16:58:30;12.20;99.90
22337;DHT22;14992;50.844;4.418;2023-02-13T17:01:14;12.20;99.90
22337;DHT22;14992;50.844;4.418;2023-02-13T17:04:18;12.20;99.90
22337;DHT22;14992;50.844;4.418;2023-02-13T17:06:54;12.10;99.90
22337;DHT22;14992;50.844;4.418;2023-02-13T17:09:54;12.10;99.90
22337;DHT22;14992;50.844;4.418;2023-02-13T17:12:33;12.00;99.90
22337;DHT22;14992;50.844;4.418;2023-02-13T17:15:17;12.00;99.90
22337;DHT22;14992;50.844;4.418;2023-02-13T17:18:15;11.90;99.90
22337;DHT22;14992;50.844;4.418;2023-02-13T17:20:50;11.80;99.90
22337;DHT22;14992;50.844;4.418;2023-02-13T17:23:45;11.80;99.90
22337;DHT22;14992;50.844;4.418;2023-02-13T17:26:22;11.70;99.90
22337;DHT22;14992;50.844;4.418;2023-02-13T17:29:17;11.70;99.90
22337;DHT22;14992;50.844;4.418;2023-02-13T17:31:54;11.70;99.90
22337;DHT22;14992;50.844;4.418;2023-02-13T17:34:53;11.70;99.90
22337;DHT22;14992;50.844;4.418;2023-02-13T17:37:28;11.60;99.90
22337;DHT22;14992;50.844;4.418;2023-02-13T17:40:24;11.60;99.90
22337;DHT22;14992;50.844;4.418;2023-02-13T17:43:10;11.50;99.90
22337;DHT22;14992;50.844;4.418;2023-02-13T17:45:58;11.50;99.90
22337;DHT22;14992;50.844;4.418;2023-02-13T17:48:40;11.40;99.90
22337;DHT22;14992;50.844;4.418;2023-02-13T17:51:30;11.30;99.90
22337;DHT22;14992;50.844;4.418;2023-02-13T17:54:13;11.20;99.90
22337;DHT22;14992;50.844;4.418;2023-02-13T17:57:01;11.10;99.90
22337;DHT22;14992;50.844;4.418;2023-02-13T17:59:45;11.10;99.90
22337;DHT22;14992;50.844;4.418;2023-02-13T18:02:44;11.10;99.90
22337;DHT22;14992;50.844;4.418;2023-02-13T18:05:27;11.10;99.90
22337;DHT22;14992;50.844;4.418;2023-02-13T18:08:23;11.10;99.90
22337;DHT22;14992;50.844;4.418;2023-02-13T18:10:59;11.00;99.90
22337;DHT22;14992;50.844;4.418;2023-02-13T18:13:54;11.00;99.90
22337;DHT22;14992;50.844;4.418;2023-02-13T18:16:30;10.90;99.90